Latest Weather Observations for Ngayawili (Elcho Island)

IDD60801

Issued at 3:31 pm CST Sunday 29 March 2015 (issued every 30 minutes, with the page automatically refreshed every 10 minutes)

About weather observations | Map of weather stations | Latest weather observations for NT | Other Formats
Station Details ID: 014517 Name: NGAYAWILI Lat: -12.00 Lon: 135.57 Height: 8.1 m
Data from the previous 72 hours. | See also: Recent months at Ngayawili (Elcho Island)
Date/Time
CST
Temp
°C
App
Temp
°C
Dew
Point
Rel
Hum
%
Delta-T
°C
Wind Press
QNH
hPa
Press
MSL
hPa
Rain
since 9 am
mm
Dir
 
Spd
km/h
Gust
km/h
Spd
kts
Gust
kts
29/03:30pm 33.3 33.8 20.8 48 8.4 ESE 19 28 10 15 1010.0 1009.9 0.0
29/03:00pm 33.1 33.9 20.6 47 8.4 ESE 17 26 9 14 1010.2 1010.1 0.0
29/02:30pm 33.4 35.0 21.5 49 8.1 ESE 15 24 8 13 1010.4 1010.3 0.0
29/02:00pm 32.9 34.5 20.8 49 8.1 E 13 24 7 13 1010.6 1010.5 0.0
29/01:30pm 32.3 32.8 20.9 51 7.6 ESE 19 28 10 15 1010.9 1010.8 0.0
29/01:00pm 32.6 33.5 20.8 49 7.9 E 17 26 9 14 1011.5 1011.4 0.0
29/12:30pm 32.2 33.2 21.7 54 7.1 E 19 30 10 16 1012.1 1012.0 0.0
29/12:00pm 31.9 32.8 20.8 51 7.4 E 17 30 9 16 1012.6 1012.5 0.0
29/11:30am 32.3 33.0 20.5 49 7.9 ESE 17 26 9 14 1012.9 1012.8 0.0
29/11:00am 31.5 32.5 21.7 56 6.6 ESE 19 26 10 14 1013.1 1013.0 0.0
29/10:30am 30.6 31.8 21.4 58 6.2 ESE 17 32 9 17 1013.4 1013.3 0.0
29/10:00am 30.1 31.4 22.3 63 5.3 ESE 19 28 10 15 1013.7 1013.6 0.0
29/09:30am 29.4 31.4 22.9 68 4.4 ESE 17 26 9 14 1013.6 1013.5 0.0
29/09:00am 28.9 31.3 23.6 73 3.6 ESE 17 24 9 13 1013.3 1013.2 0.2
29/08:30am 27.9 31.0 24.1 80 2.6 ESE 15 24 8 13 1013.0 1012.9 0.2
29/08:00am 26.8 29.9 24.1 85 1.9 ESE 15 22 8 12 1012.7 1012.6 0.2
29/07:30am 26.0 30.3 24.2 90 1.2 ESE 9 13 5 7 1012.5 1012.4 0.2
29/07:00am 24.8 28.8 23.8 94 0.7 SE 9 11 5 6 1012.1 1012.0 0.2
29/06:30am 24.4 27.9 23.5 95 0.6 SE 11 13 6 7 1011.8 1011.7 0.2
29/06:00am 24.2 27.6 23.3 95 0.6 SE 11 13 6 7 1011.5 1011.4 0.2
29/05:30am 24.1 28.2 23.2 95 0.6 SE 7 9 4 5 1011.3 1011.2 0.2
29/05:00am 24.1 28.1 23.1 94 0.7 SE 7 9 4 5 1011.2 1011.1 0.2
29/04:30am 24.0 27.6 23.0 94 0.7 SSE 9 11 5 6 1011.1 1011.0 0.2
29/04:00am 24.2 27.8 23.0 93 0.8 SSE 9 11 5 6 1010.8 1010.7 0.2
29/03:30am 24.6 28.5 23.0 91 1.1 ESE 7 9 4 5 1011.0 1010.9 0.2
29/03:00am 24.5 28.5 23.1 92 0.9 ESE 7 9 4 5 1011.1 1011.0 0.2
29/02:30am 24.5 28.5 23.1 92 0.9 SE 7 9 4 5 1011.3 1011.2 0.2
29/02:00am 25.1 29.0 23.0 88 1.4 ESE 7 9 4 5 1011.7 1011.6 0.2
29/01:30am 25.6 29.7 22.9 85 1.8 ESE 6 7 3 4 1012.0 1011.9 0.2
29/01:00am 25.8 29.8 23.1 85 1.8 ESE 7 11 4 6 1012.5 1012.4 0.2
29/12:30am 25.7 29.8 23.2 86 1.7 SE 7 11 4 6 1012.8 1012.7 0.2
29/12:00am 26.0 30.2 23.1 84 2.0 ESE 6 9 3 5 1013.1 1013.0 0.2
 
Date/Time
CST
Temp
°C
App
Temp
°C
Dew
Point
Rel
Hum
%
Delta-T
°C
Wind Press
QNH
hPa
Press
MSL
hPa
Rain
since 9 am
mm
Dir
 
Spd
km/h
Gust
km/h
Spd
kts
Gust
kts
28/11:30pm 26.1 30.1 22.8 82 2.2 E 6 7 3 4 1013.4 1013.3 0.2
28/11:00pm 26.3 31.4 22.6 80 2.5 CALM 0 7 0 4 1013.6 1013.5 0.2
28/10:30pm 26.3 31.2 22.4 79 2.6 CALM 0 0 0 0 1013.5 1013.4 0.2
28/10:00pm 26.3 30.2 21.9 77 2.9 E 4 6 2 3 1013.2 1013.1 0.2
28/09:30pm 25.7 31.2 23.4 87 1.6 CALM 0 0 0 0 1013.2 1013.1 0.2
28/09:00pm 26.4 31.0 21.8 76 3.1 CALM 0 0 0 0 1013.0 1012.9 0.2
28/08:30pm 26.6 30.8 22.4 78 2.8 E 4 6 2 3 1012.6 1012.5 0.2
28/08:00pm 27.6 30.9 21.4 69 4.1 ENE 6 9 3 5 1012.2 1012.1 0.2
28/07:30pm 27.7 30.7 20.8 66 4.6 E 6 9 3 5 1011.7 1011.6 0.2
28/07:00pm 28.4 31.2 20.9 64 5.0 ENE 7 11 4 6 1011.3 1011.2 0.2
28/06:30pm 29.4 31.2 20.3 58 6.0 ENE 11 15 6 8 1010.9 1010.8 0.2
28/06:00pm 30.1 32.2 20.9 57 6.1 NE 11 17 6 9 1010.7 1010.6 0.2
28/05:30pm 30.9 32.4 20.5 54 6.9 ENE 13 20 7 11 1010.4 1010.3 0.2
28/05:00pm 31.5 31.0 17.0 41 9.2 ENE 15 26 8 14 1010.2 1010.1 0.2
28/04:30pm 31.9 31.8 18.8 45 8.5 ENE 17 24 9 13 1010.1 1010.0 0.2
28/04:00pm 32.2 32.0 18.4 44 8.9 E 17 26 9 14 1010.2 1010.1 0.2
28/03:30pm 31.4 33.0 24.5 67 4.8 NNE 24 32 13 17 1010.2 1010.1 0.2
28/03:00pm 31.2 32.9 25.3 71 4.2 N 26 32 14 17 1010.4 1010.3 0.2
28/02:30pm 32.7 34.7 23.9 60 6.1 NNE 20 28 11 15 1010.7 1010.6 0.2
28/02:00pm 32.2 33.4 23.2 59 6.2 NNE 22 30 12 16 1010.8 1010.7 0.2
28/01:30pm 31.5 31.2 22.5 59 6.2 NNE 28 35 15 19 1011.2 1011.1 0.2
28/01:00pm 30.8 32.2 22.9 62 5.4 NE 20 32 11 17 1011.6 1011.5 0.2
28/12:30pm 30.8 33.3 23.2 64 5.2 NE 15 22 8 12 1012.1 1012.0 0.2
28/12:00pm 32.0 33.7 22.4 57 6.6 NE 17 28 9 15 1012.3 1012.2 0.2
28/11:30am 30.8 33.2 22.9 62 5.4 E 15 22 8 12 1013.0 1012.9 0.2
28/11:00am 30.9 32.4 23.0 62 5.4 ENE 20 32 11 17 1013.3 1013.2 0.2
28/10:30am 30.5 33.0 23.2 65 5.0 E 15 22 8 12 1013.5 1013.4 0.2
28/10:00am 30.0 34.3 24.9 74 3.6 E 11 17 6 9 1013.4 1013.3 0.2
28/09:30am 28.7 31.8 23.6 74 3.5 E 13 20 7 11 1013.6 1013.5 0.0
28/09:00am 28.0 31.6 24.4 81 2.5 E 13 19 7 10 1013.7 1013.6 -
28/08:30am 27.0 31.4 25.0 89 1.4 SE 11 17 6 9 1013.4 1013.3 -
28/08:00am 26.2 30.9 25.0 93 0.8 SE 9 11 5 6 1013.1 1013.0 -
28/07:30am 25.1 29.5 24.4 96 0.5 SSE 9 11 5 6 1012.6 1012.5 -
28/07:00am 24.0 28.2 23.5 97 0.3 SE 7 7 4 4 1012.3 1012.2 -
28/06:30am 23.6 27.6 23.1 97 0.3 SE 7 9 4 5 1012.0 1011.9 -
28/06:00am 23.7 29.1 23.2 97 0.3 CALM 0 0 0 0 1011.7 1011.6 -
28/05:30am 23.6 28.9 23.1 97 0.3 CALM 0 0 0 0 1011.7 1011.6 -
28/05:00am 23.6 28.8 22.9 96 0.5 CALM 0 0 0 0 1011.7 1011.6 -
28/04:30am 23.9 29.3 23.2 96 0.5 CALM 0 0 0 0 1011.6 1011.5 -
28/04:00am 24.1 29.6 23.4 96 0.5 CALM 0 0 0 0 1011.6 1011.5 -
28/03:30am 24.2 29.8 23.5 96 0.5 CALM 0 0 0 0 1011.6 1011.5 -
28/03:00am 24.2 29.8 23.5 96 0.5 CALM 0 0 0 0 1011.8 1011.7 0.0
28/02:30am 24.1 28.8 23.4 96 0.5 ESE 4 6 2 3 1012.0 1011.9 -
28/02:00am 24.0 28.3 23.3 96 0.5 SE 6 7 3 4 1012.2 1012.1 -
28/01:30am 24.2 28.5 23.3 95 0.6 SE 6 7 3 4 1012.3 1012.2 -
28/01:00am 24.4 28.8 23.5 95 0.6 SE 6 7 3 4 1012.6 1012.5 -
28/12:30am 24.8 29.3 23.9 95 0.6 SE 7 7 4 4 1012.7 1012.6 -
28/12:00am 25.0 29.1 24.0 94 0.7 SE 9 9 5 5 1013.0 1012.9 -
 
Date/Time
CST
Temp
°C
App
Temp
°C
Dew
Point
Rel
Hum
%
Delta-T
°C
Wind Press
QNH
hPa
Press
MSL
hPa
Rain
since 9 am
mm
Dir
 
Spd
km/h
Gust
km/h
Spd
kts
Gust
kts
27/11:30pm 25.1 29.3 24.1 94 0.7 SE 9 11 5 6 1013.2 1013.1 -
27/11:00pm 25.3 29.6 24.3 94 0.7 SE 9 11 5 6 1013.2 1013.1 -
27/10:30pm 25.3 29.6 24.3 94 0.7 SSE 9 11 5 6 1013.4 1013.3 -
27/10:00pm 25.3 29.6 24.3 94 0.7 SSE 9 11 5 6 1013.5 1013.4 -
27/09:30pm 25.2 29.5 24.2 94 0.7 SSE 9 13 5 7 1013.5 1013.4 -
27/09:00pm 25.2 28.6 24.0 93 0.8 SSE 13 17 7 9 1013.5 1013.4 15.0
27/08:30pm 25.1 29.7 24.1 94 0.7 SSE 7 7 4 4 1013.2 1013.1 -
27/08:00pm 25.1 29.6 23.9 93 0.8 SSE 7 9 4 5 1012.7 1012.6 -
27/07:30pm 24.9 29.4 23.9 94 0.7 SSE 7 11 4 6 1012.4 1012.3 -
27/07:00pm 24.9 29.0 23.9 94 0.7 SSE 9 13 5 7 1012.4 1012.3 -
27/06:30pm 24.9 29.0 24.0 95 0.6 SSE 9 13 5 7 1012.3 1012.2 -
27/06:00pm 24.9 29.0 24.0 95 0.6 S 9 11 5 6 1012.1 1012.0 -
27/05:30pm 24.7 28.3 23.7 94 0.7 S 11 13 6 7 1012.2 1012.1 -
27/05:00pm 24.5 28.0 23.6 95 0.6 SE 11 17 6 9 1012.3 1012.2 -
27/04:30pm 23.8 24.2 22.4 92 0.9 SSE 24 37 13 20 1012.0 1011.9 -
27/04:14pm 25.4 27.0 22.9 86 1.7 SW 19 35 10 19 1011.6 1011.5 -
27/04:00pm 30.1 33.7 24.3 71 4.0 NW 13 15 7 8 1011.9 1011.8 -
27/03:30pm 30.9 34.3 25.3 72 4.0 NW 17 20 9 11 1011.2 1011.1 -
27/03:00pm 31.0 34.2 25.6 73 3.8 NNW 19 20 10 11 1011.3 1011.2 -
27/02:30pm 30.6 33.6 24.7 71 4.1 N 17 20 9 11 1011.5 1011.4 -
27/02:00pm 30.5 33.3 24.9 72 3.9 N 19 20 10 11 1011.7 1011.6 -
27/01:30pm 30.5 33.8 25.1 73 3.8 NNW 17 20 9 11 1012.1 1012.0 -
27/01:00pm 30.3 33.4 24.2 70 4.2 NNW 15 19 8 10 1012.6 1012.5 -
27/12:30pm 30.5 35.5 26.0 77 3.2 NW 11 13 6 7 1013.3 1013.2 -
27/12:00pm 29.4 33.3 24.9 77 3.2 WNW 13 15 7 8 1013.9 1013.8 -
27/11:30am 29.3 33.0 24.6 76 3.3 W 13 15 7 8 1014.4 1014.3 -
27/11:00am 29.0 33.1 25.2 80 2.7 WSW 13 15 7 8 1014.7 1014.6 -
27/06:00am 24.5 28.9 23.8 96 0.5 SSE 7 9 4 5 1012.7 1012.6 7.2
27/05:30am 24.6 28.7 23.9 96 0.5 SSE 9 11 5 6 1012.6 1012.5 7.2
27/05:00am 24.5 29.1 23.8 96 0.5 SE 6 9 3 5 1012.7 1012.6 7.2
27/04:30am 24.6 29.1 23.9 96 0.5 SE 7 9 4 5 1012.6 1012.5 7.2
27/04:00am 24.6 29.1 23.9 96 0.5 SSE 7 9 4 5 1012.7 1012.6 7.2
27/03:30am 24.9 29.4 24.0 95 0.6 SSE 7 9 4 5 1013.1 1013.0 7.2
27/03:00am 24.9 29.0 23.9 94 0.7 SSE 9 11 5 6 1013.5 1013.4 7.2
27/02:30am 24.9 30.6 23.7 93 0.8 CALM 0 0 0 0 1014.0 1013.9 7.2
27/02:00am 25.0 30.4 23.2 90 1.2 CALM 0 0 0 0 1014.5 1014.4 7.2
27/01:30am 25.6 29.7 23.3 87 1.6 WSW 7 9 4 5 1014.9 1014.8 7.2
27/01:00am 25.7 29.5 23.4 87 1.6 WNW 9 11 5 6 1015.3 1015.2 7.2
27/12:30am 25.4 29.1 23.3 88 1.4 W 9 11 5 6 1015.7 1015.6 7.0
27/12:00am 24.8 30.6 23.9 95 0.6 CALM 0 0 0 0 1016.1 1016.0 6.8
 
Date/Time
CST
Temp
°C
App
Temp
°C
Dew
Point
Rel
Hum
%
Delta-T
°C
Wind Press
QNH
hPa
Press
MSL
hPa
Rain
since 9 am
mm
Dir
 
Spd
km/h
Gust
km/h
Spd
kts
Gust
kts
26/11:30pm 24.3 29.7 23.3 94 0.7 CALM 0 0 0 0 1016.3 1016.2 6.6
26/11:00pm 24.5 30.1 23.5 94 0.7 CALM 0 0 0 0 1016.4 1016.3 6.6
26/10:30pm 24.4 29.9 23.4 94 0.7 CALM 0 0 0 0 1016.5 1016.4 6.6
26/10:00pm 24.4 29.9 23.4 94 0.7 CALM 0 0 0 0 1016.2 1016.1 6.4
26/09:30pm 24.3 28.4 23.3 94 0.7 SE 7 9 4 5 1015.6 1015.5 6.4
26/09:00pm 24.4 28.1 23.2 93 0.8 E 9 13 5 7 1015.3 1015.2 5.4
26/08:30pm 24.2 27.4 23.0 93 0.8 ENE 11 17 6 9 1015.5 1015.4 4.0
26/08:00pm 24.9 27.9 23.3 91 1.1 ENE 13 20 7 11 1015.2 1015.1 2.6
26/07:30pm 25.3 28.2 23.2 88 1.4 SE 13 20 7 11 1014.3 1014.2 2.0
26/07:00pm 25.5 28.3 23.0 86 1.7 SE 13 19 7 10 1014.1 1014.0 2.0
26/06:30pm 25.6 28.7 23.6 89 1.4 ESE 13 17 7 9 1013.3 1013.2 2.0
26/06:00pm 26.0 30.4 24.4 91 1.1 SE 9 13 5 7 1013.4 1013.3 2.0
26/05:30pm 25.8 29.9 24.6 93 0.8 SSE 11 15 6 8 1012.9 1012.8 2.0
26/05:00pm 24.8 26.7 22.1 85 1.8 SSE 15 22 8 12 1012.9 1012.8 1.0
26/04:57pm 25.2 26.8 22.1 83 2.1 SE 17 24 9 13 1013.0 1012.9 0.8
26/04:30pm 30.2 34.8 24.8 73 3.8 N 9 13 5 7 1012.0 1011.9 0.8
26/04:00pm 30.2 34.4 24.8 73 3.8 N 11 15 6 8 1012.0 1011.9 0.8

Other Formats:

Comma delimited format used in spreadsheet applications
http://www.bom.gov.au/fwo/IDD60801/IDD60801.95146.axf

JavaScript Object Notation format (JSON) in row-major order
http://www.bom.gov.au/fwo/IDD60801/IDD60801.95146.json